sensor_id;sensor_type;location;lat;lon;timestamp;P1;durP1;ratioP1;P2;durP2;ratioP2
55815;SDS011;41744;52.404;16.942;2024-03-23T00:54:03;26.42;;;11.85;;
55815;SDS011;41744;52.404;16.942;2024-03-23T00:56:29;30.20;;;12.77;;
55815;SDS011;41744;52.404;16.942;2024-03-23T00:58:55;26.13;;;11.95;;
55815;SDS011;41744;52.404;16.942;2024-03-23T01:01:21;25.33;;;11.70;;
55815;SDS011;41744;52.404;16.942;2024-03-23T01:03:47;26.73;;;11.67;;
55815;SDS011;41744;52.404;16.942;2024-03-23T01:06:13;31.02;;;12.00;;
55815;SDS011;41744;52.404;16.942;2024-03-23T01:08:39;28.53;;;11.80;;
55815;SDS011;41744;52.404;16.942;2024-03-23T01:11:05;27.48;;;11.75;;
55815;SDS011;41744;52.404;16.942;2024-03-23T01:13:31;30.15;;;11.55;;
55815;SDS011;41744;52.404;16.942;2024-03-23T01:15:57;31.20;;;12.87;;
55815;SDS011;41744;52.404;16.942;2024-03-23T01:18:23;34.45;;;13.55;;
55815;SDS011;41744;52.404;16.942;2024-03-23T01:20:51;33.30;;;12.35;;
55815;SDS011;41744;52.404;16.942;2024-03-23T01:23:17;31.63;;;13.70;;
55815;SDS011;41744;52.404;16.942;2024-03-23T01:25:43;34.80;;;13.32;;
55815;SDS011;41744;52.404;16.942;2024-03-23T01:28:09;28.52;;;12.93;;
55815;SDS011;41744;52.404;16.942;2024-03-23T01:30:35;32.20;;;12.93;;
55815;SDS011;41744;52.404;16.942;2024-03-23T01:33:01;32.03;;;13.75;;
55815;SDS011;41744;52.404;16.942;2024-03-23T01:35:28;30.83;;;12.88;;
55815;SDS011;41744;52.404;16.942;2024-03-23T01:37:53;34.53;;;12.65;;
55815;SDS011;41744;52.404;16.942;2024-03-23T01:40:20;29.10;;;12.63;;
55815;SDS011;41744;52.404;16.942;2024-03-23T01:42:58;32.97;;;13.40;;
55815;SDS011;41744;52.404;16.942;2024-03-23T01:45:28;31.17;;;12.40;;
55815;SDS011;41744;52.404;16.942;2024-03-23T01:47:54;31.13;;;13.68;;
55815;SDS011;41744;52.404;16.942;2024-03-23T01:50:20;31.80;;;13.05;;
55815;SDS011;41744;52.404;16.942;2024-03-23T01:52:47;30.08;;;13.48;;
55815;SDS011;41744;52.404;16.942;2024-03-23T01:55:14;29.58;;;12.30;;
55815;SDS011;41744;52.404;16.942;2024-03-23T01:57:40;31.08;;;13.18;;
55815;SDS011;41744;52.404;16.942;2024-03-23T02:00:06;33.38;;;12.90;;
55815;SDS011;41744;52.404;16.942;2024-03-23T02:02:32;27.17;;;12.52;;
55815;SDS011;41744;52.404;16.942;2024-03-23T02:04:58;32.28;;;13.25;;
55815;SDS011;41744;52.404;16.942;2024-03-23T02:07:24;28.53;;;13.40;;
55815;SDS011;41744;52.404;16.942;2024-03-23T02:09:50;30.42;;;13.20;;
55815;SDS011;41744;52.404;16.942;2024-03-23T02:12:17;31.90;;;13.38;;
55815;SDS011;41744;52.404;16.942;2024-03-23T02:14:43;36.17;;;13.98;;
55815;SDS011;41744;52.404;16.942;2024-03-23T02:17:09;34.58;;;13.95;;
55815;SDS011;41744;52.404;16.942;2024-03-23T02:19:35;31.83;;;13.95;;
55815;SDS011;41744;52.404;16.942;2024-03-23T02:22:01;34.03;;;14.27;;
55815;SDS011;41744;52.404;16.942;2024-03-23T02:24:29;35.07;;;14.60;;
55815;SDS011;41744;52.404;16.942;2024-03-23T02:26:55;34.17;;;14.63;;
55815;SDS011;41744;52.404;16.942;2024-03-23T02:29:21;32.50;;;14.82;;
55815;SDS011;41744;52.404;16.942;2024-03-23T02:31:47;30.55;;;14.43;;
55815;SDS011;41744;52.404;16.942;2024-03-23T02:34:13;34.75;;;14.52;;
55815;SDS011;41744;52.404;16.942;2024-03-23T02:36:39;37.25;;;14.52;;
55815;SDS011;41744;52.404;16.942;2024-03-23T02:39:05;39.20;;;15.73;;
55815;SDS011;41744;52.404;16.942;2024-03-23T02:41:31;37.80;;;14.95;;
55815;SDS011;41744;52.404;16.942;2024-03-23T02:43:57;32.50;;;14.27;;
55815;SDS011;41744;52.404;16.942;2024-03-23T02:46:23;32.88;;;14.27;;
55815;SDS011;41744;52.404;16.942;2024-03-23T02:48:49;31.73;;;14.20;;
55815;SDS011;41744;52.404;16.942;2024-03-23T02:51:15;31.58;;;14.60;;
55815;SDS011;41744;52.404;16.942;2024-03-23T02:53:41;33.45;;;14.35;;
55815;SDS011;41744;52.404;16.942;2024-03-23T02:56:07;35.00;;;14.25;;
55815;SDS011;41744;52.404;16.942;2024-03-23T02:58:33;30.02;;;13.95;;
55815;SDS011;41744;52.404;16.942;2024-03-23T03:00:59;35.53;;;13.88;;
55815;SDS011;41744;52.404;16.942;2024-03-23T03:03:25;32.67;;;14.50;;
55815;SDS011;41744;52.404;16.942;2024-03-23T03:05:55;35.08;;;14.40;;
55815;SDS011;41744;52.404;16.942;2024-03-23T03:08:21;34.60;;;14.63;;
55815;SDS011;41744;52.404;16.942;2024-03-23T03:10:47;31.55;;;14.18;;
55815;SDS011;41744;52.404;16.942;2024-03-23T03:13:13;35.47;;;14.45;;
55815;SDS011;41744;52.404;16.942;2024-03-23T03:15:45;31.58;;;13.45;;
55815;SDS011;41744;52.404;16.942;2024-03-23T03:18:11;30.67;;;14.20;;
55815;SDS011;41744;52.404;16.942;2024-03-23T03:20:40;30.38;;;13.57;;
55815;SDS011;41744;52.404;16.942;2024-03-23T03:23:06;32.20;;;13.90;;
55815;SDS011;41744;52.404;16.942;2024-03-23T03:25:33;30.77;;;13.27;;
55815;SDS011;41744;52.404;16.942;2024-03-23T03:27:59;30.80;;;14.20;;
55815;SDS011;41744;52.404;16.942;2024-03-23T03:30:25;34.95;;;14.25;;
55815;SDS011;41744;52.404;16.942;2024-03-23T03:32:54;31.55;;;13.93;;
55815;SDS011;41744;52.404;16.942;2024-03-23T03:35:20;30.73;;;13.75;;
55815;SDS011;41744;52.404;16.942;2024-03-23T03:37:46;30.33;;;13.63;;
55815;SDS011;41744;52.404;16.942;2024-03-23T03:40:12;36.08;;;14.38;;
55815;SDS011;41744;52.404;16.942;2024-03-23T03:42:40;28.83;;;13.43;;
55815;SDS011;41744;52.404;16.942;2024-03-23T03:45:06;29.75;;;14.18;;
55815;SDS011;41744;52.404;16.942;2024-03-23T03:47:32;34.53;;;15.00;;
55815;SDS011;41744;52.404;16.942;2024-03-23T03:49:58;31.00;;;13.77;;
55815;SDS011;41744;52.404;16.942;2024-03-23T03:52:24;32.80;;;14.95;;
55815;SDS011;41744;52.404;16.942;2024-03-23T03:54:50;34.35;;;13.85;;
55815;SDS011;41744;52.404;16.942;2024-03-23T03:57:21;32.40;;;14.55;;
55815;SDS011;41744;52.404;16.942;2024-03-23T03:59:47;32.45;;;13.80;;
55815;SDS011;41744;52.404;16.942;2024-03-23T04:02:13;34.50;;;15.15;;
55815;SDS011;41744;52.404;16.942;2024-03-23T04:04:39;29.20;;;13.63;;
55815;SDS011;41744;52.404;16.942;2024-03-23T04:07:05;30.85;;;14.05;;
55815;SDS011;41744;52.404;16.942;2024-03-23T04:09:31;32.67;;;14.48;;
55815;SDS011;41744;52.404;16.942;2024-03-23T04:11:57;30.03;;;13.63;;
55815;SDS011;41744;52.404;16.942;2024-03-23T04:14:23;30.63;;;13.50;;
55815;SDS011;41744;52.404;16.942;2024-03-23T04:16:49;28.48;;;12.82;;
55815;SDS011;41744;52.404;16.942;2024-03-23T04:19:15;27.20;;;12.25;;
55815;SDS011;41744;52.404;16.942;2024-03-23T04:21:41;29.60;;;12.77;;
55815;SDS011;41744;52.404;16.942;2024-03-23T04:24:07;28.43;;;12.80;;
55815;SDS011;41744;52.404;16.942;2024-03-23T04:26:43;12.18;;;5.07;;
55815;SDS011;41744;52.404;16.942;2024-03-23T04:29:09;6.53;;;3.00;;
55815;SDS011;41744;52.404;16.942;2024-03-23T04:31:35;6.18;;;2.33;;
55815;SDS011;41744;52.404;16.942;2024-03-23T04:34:01;6.53;;;2.03;;
55815;SDS011;41744;52.404;16.942;2024-03-23T04:36:27;7.00;;;2.05;;
55815;SDS011;41744;52.404;16.942;2024-03-23T04:38:53;9.40;;;1.80;;
55815;SDS011;41744;52.404;16.942;2024-03-23T04:41:19;7.83;;;1.80;;
55815;SDS011;41744;52.404;16.942;2024-03-23T04:43:45;6.55;;;2.10;;
55815;SDS011;41744;52.404;16.942;2024-03-23T04:46:11;9.65;;;1.98;;
55815;SDS011;41744;52.404;16.942;2024-03-23T04:48:37;5.83;;;1.73;;
55815;SDS011;41744;52.404;16.942;2024-03-23T04:51:03;7.17;;;1.83;;
55815;SDS011;41744;52.404;16.942;2024-03-23T04:53:29;7.13;;;1.90;;
55815;SDS011;41744;52.404;16.942;2024-03-23T04:55:55;7.30;;;1.80;;
55815;SDS011;41744;52.404;16.942;2024-03-23T04:58:22;10.20;;;2.00;;
55815;SDS011;41744;52.404;16.942;2024-03-23T05:00:52;6.47;;;2.00;;
55815;SDS011;41744;52.404;16.942;2024-03-23T05:03:18;8.23;;;2.17;;
55815;SDS011;41744;52.404;16.942;2024-03-23T05:05:46;7.60;;;1.77;;
55815;SDS011;41744;52.404;16.942;2024-03-23T05:08:12;10.00;;;2.53;;
55815;SDS011;41744;52.404;16.942;2024-03-23T05:10:38;9.27;;;2.60;;
55815;SDS011;41744;52.404;16.942;2024-03-23T05:13:04;9.60;;;2.23;;
55815;SDS011;41744;52.404;16.942;2024-03-23T05:15:30;6.70;;;1.90;;
55815;SDS011;41744;52.404;16.942;2024-03-23T05:17:56;10.27;;;2.30;;
55815;SDS011;41744;52.404;16.942;2024-03-23T05:20:22;11.43;;;2.23;;
55815;SDS011;41744;52.404;16.942;2024-03-23T05:22:48;10.47;;;2.20;;
55815;SDS011;41744;52.404;16.942;2024-03-23T05:25:14;12.90;;;2.30;;
55815;SDS011;41744;52.404;16.942;2024-03-23T05:27:41;8.50;;;2.20;;
55815;SDS011;41744;52.404;16.942;2024-03-23T05:30:07;9.20;;;2.20;;
55815;SDS011;41744;52.404;16.942;2024-03-23T05:32:34;13.97;;;2.93;;
55815;SDS011;41744;52.404;16.942;2024-03-23T05:35:00;10.93;;;2.57;;
55815;SDS011;41744;52.404;16.942;2024-03-23T05:37:26;12.43;;;2.63;;
55815;SDS011;41744;52.404;16.942;2024-03-23T05:39:52;12.27;;;2.50;;
55815;SDS011;41744;52.404;16.942;2024-03-23T05:42:18;14.97;;;2.93;;
55815;SDS011;41744;52.404;16.942;2024-03-23T05:44:44;11.80;;;2.80;;
55815;SDS011;41744;52.404;16.942;2024-03-23T05:47:11;8.97;;;2.53;;
55815;SDS011;41744;52.404;16.942;2024-03-23T05:49:41;10.97;;;2.67;;
55815;SDS011;41744;52.404;16.942;2024-03-23T05:52:07;12.63;;;2.60;;
55815;SDS011;41744;52.404;16.942;2024-03-23T05:54:34;11.63;;;2.47;;
55815;SDS011;41744;52.404;16.942;2024-03-23T05:57:00;12.13;;;2.37;;
55815;SDS011;41744;52.404;16.942;2024-03-23T05:59:26;11.73;;;2.53;;
55815;SDS011;41744;52.404;16.942;2024-03-23T06:01:52;12.57;;;2.90;;
55815;SDS011;41744;52.404;16.942;2024-03-23T06:04:18;16.93;;;2.37;;
55815;SDS011;41744;52.404;16.942;2024-03-23T06:06:45;14.10;;;3.00;;
55815;SDS011;41744;52.404;16.942;2024-03-23T06:09:11;12.83;;;2.90;;
55815;SDS011;41744;52.404;16.942;2024-03-23T06:11:37;20.57;;;3.23;;
55815;SDS011;41744;52.404;16.942;2024-03-23T06:14:03;17.37;;;2.87;;
55815;SDS011;41744;52.404;16.942;2024-03-23T06:16:29;12.53;;;2.80;;
55815;SDS011;41744;52.404;16.942;2024-03-23T06:18:55;15.67;;;2.70;;
55815;SDS011;41744;52.404;16.942;2024-03-23T06:21:22;12.00;;;2.90;;
55815;SDS011;41744;52.404;16.942;2024-03-23T06:23:51;10.40;;;2.78;;
55815;SDS011;41744;52.404;16.942;2024-03-23T06:26:20;17.80;;;3.40;;
55815;SDS011;41744;52.404;16.942;2024-03-23T06:28:47;10.47;;;2.53;;
55815;SDS011;41744;52.404;16.942;2024-03-23T06:31:13;14.33;;;2.87;;
55815;SDS011;41744;52.404;16.942;2024-03-23T06:33:39;9.13;;;2.93;;
55815;SDS011;41744;52.404;16.942;2024-03-23T06:36:08;15.80;;;3.40;;
55815;SDS011;41744;52.404;16.942;2024-03-23T06:38:35;14.80;;;2.90;;
55815;SDS011;41744;52.404;16.942;2024-03-23T06:41:04;21.63;;;3.83;;
55815;SDS011;41744;52.404;16.942;2024-03-23T06:43:30;19.70;;;3.60;;
55815;SDS011;41744;52.404;16.942;2024-03-23T06:45:56;9.00;;;2.60;;
55815;SDS011;41744;52.404;16.942;2024-03-23T06:48:22;15.47;;;3.00;;
55815;SDS011;41744;52.404;16.942;2024-03-23T06:50:48;10.23;;;2.50;;
55815;SDS011;41744;52.404;16.942;2024-03-23T06:53:15;10.73;;;2.63;;
55815;SDS011;41744;52.404;16.942;2024-03-23T06:55:41;10.17;;;2.60;;
55815;SDS011;41744;52.404;16.942;2024-03-23T06:58:07;15.17;;;2.60;;
55815;SDS011;41744;52.404;16.942;2024-03-23T07:00:35;18.83;;;2.53;;
55815;SDS011;41744;52.404;16.942;2024-03-23T07:03:01;10.43;;;2.57;;
55815;SDS011;41744;52.404;16.942;2024-03-23T07:05:28;13.90;;;2.60;;
55815;SDS011;41744;52.404;16.942;2024-03-23T07:07:54;11.37;;;2.50;;
55815;SDS011;41744;52.404;16.942;2024-03-23T07:10:20;16.70;;;2.90;;
55815;SDS011;41744;52.404;16.942;2024-03-23T07:12:46;16.63;;;3.53;;
55815;SDS011;41744;52.404;16.942;2024-03-23T07:15:12;14.80;;;2.63;;
55815;SDS011;41744;52.404;16.942;2024-03-23T07:17:38;12.67;;;3.20;;
55815;SDS011;41744;52.404;16.942;2024-03-23T07:20:04;14.80;;;2.80;;
55815;SDS011;41744;52.404;16.942;2024-03-23T07:22:35;12.70;;;3.00;;
55815;SDS011;41744;52.404;16.942;2024-03-23T07:25:01;20.40;;;3.40;;
55815;SDS011;41744;52.404;16.942;2024-03-23T07:27:28;17.27;;;3.33;;
55815;SDS011;41744;52.404;16.942;2024-03-23T07:29:54;18.43;;;3.17;;
55815;SDS011;41744;52.404;16.942;2024-03-23T07:32:20;16.27;;;3.00;;
55815;SDS011;41744;52.404;16.942;2024-03-23T07:34:46;20.80;;;3.00;;
55815;SDS011;41744;52.404;16.942;2024-03-23T07:37:12;18.93;;;3.37;;
55815;SDS011;41744;52.404;16.942;2024-03-23T07:39:39;13.33;;;3.63;;
55815;SDS011;41744;52.404;16.942;2024-03-23T07:42:05;16.73;;;3.53;;
55815;SDS011;41744;52.404;16.942;2024-03-23T07:44:31;12.60;;;2.57;;
55815;SDS011;41744;52.404;16.942;2024-03-23T07:46:58;19.27;;;4.13;;
55815;SDS011;41744;52.404;16.942;2024-03-23T07:49:24;18.97;;;3.10;;
55815;SDS011;41744;52.404;16.942;2024-03-23T07:51:50;21.03;;;3.33;;
55815;SDS011;41744;52.404;16.942;2024-03-23T07:54:16;12.20;;;3.50;;
55815;SDS011;41744;52.404;16.942;2024-03-23T07:56:42;15.40;;;3.27;;
55815;SDS011;41744;52.404;16.942;2024-03-23T07:59:08;13.00;;;3.00;;
55815;SDS011;41744;52.404;16.942;2024-03-23T08:01:34;18.70;;;4.70;;
55815;SDS011;41744;52.404;16.942;2024-03-23T08:04:00;19.67;;;4.17;;
55815;SDS011;41744;52.404;16.942;2024-03-23T08:06:26;16.57;;;3.97;;
55815;SDS011;41744;52.404;16.942;2024-03-23T08:08:54;13.63;;;3.57;;
55815;SDS011;41744;52.404;16.942;2024-03-23T08:11:26;16.20;;;3.23;;
55815;SDS011;41744;52.404;16.942;2024-03-23T08:13:52;15.77;;;3.70;;
55815;SDS011;41744;52.404;16.942;2024-03-23T08:16:18;16.53;;;3.60;;
55815;SDS011;41744;52.404;16.942;2024-03-23T08:18:44;14.27;;;2.80;;
55815;SDS011;41744;52.404;16.942;2024-03-23T08:21:10;21.97;;;3.77;;
55815;SDS011;41744;52.404;16.942;2024-03-23T08:23:36;14.47;;;3.50;;
55815;SDS011;41744;52.404;16.942;2024-03-23T08:26:03;14.43;;;3.50;;
55815;SDS011;41744;52.404;16.942;2024-03-23T08:28:29;24.83;;;4.37;;
55815;SDS011;41744;52.404;16.942;2024-03-23T08:30:56;21.23;;;3.63;;
55815;SDS011;41744;52.404;16.942;2024-03-23T08:33:22;9.50;;;3.37;;
55815;SDS011;41744;52.404;16.942;2024-03-23T08:35:54;15.10;;;3.33;;
55815;SDS011;41744;52.404;16.942;2024-03-23T08:38:21;13.80;;;3.30;;
55815;SDS011;41744;52.404;16.942;2024-03-23T08:40:47;16.23;;;3.27;;
55815;SDS011;41744;52.404;16.942;2024-03-23T08:43:13;17.37;;;4.00;;
55815;SDS011;41744;52.404;16.942;2024-03-23T08:45:39;17.77;;;3.50;;
55815;SDS011;41744;52.404;16.942;2024-03-23T08:48:05;14.93;;;3.07;;
55815;SDS011;41744;52.404;16.942;2024-03-23T08:50:31;17.63;;;3.03;;
55815;SDS011;41744;52.404;16.942;2024-03-23T08:52:57;16.17;;;2.87;;
55815;SDS011;41744;52.404;16.942;2024-03-23T08:55:23;11.07;;;2.70;;
55815;SDS011;41744;52.404;16.942;2024-03-23T08:57:49;15.73;;;3.23;;
55815;SDS011;41744;52.404;16.942;2024-03-23T09:00:15;17.30;;;3.20;;
55815;SDS011;41744;52.404;16.942;2024-03-23T09:02:41;18.03;;;3.73;;
55815;SDS011;41744;52.404;16.942;2024-03-23T09:05:07;17.13;;;3.47;;
55815;SDS011;41744;52.404;16.942;2024-03-23T09:07:33;6.67;;;3.20;;
55815;SDS011;41744;52.404;16.942;2024-03-23T09:09:59;15.60;;;3.03;;
55815;SDS011;41744;52.404;16.942;2024-03-23T09:12:25;10.87;;;2.93;;
55815;SDS011;41744;52.404;16.942;2024-03-23T09:14:51;13.67;;;3.30;;
55815;SDS011;41744;52.404;16.942;2024-03-23T09:17:18;12.67;;;3.20;;
55815;SDS011;41744;52.404;16.942;2024-03-23T09:19:44;19.20;;;4.50;;
55815;SDS011;41744;52.404;16.942;2024-03-23T09:22:10;14.10;;;3.87;;
55815;SDS011;41744;52.404;16.942;2024-03-23T09:24:36;12.13;;;3.73;;
55815;SDS011;41744;52.404;16.942;2024-03-23T09:27:02;10.67;;;3.47;;
55815;SDS011;41744;52.404;16.942;2024-03-23T09:29:28;16.50;;;4.00;;
55815;SDS011;41744;52.404;16.942;2024-03-23T09:31:54;17.60;;;3.70;;
55815;SDS011;41744;52.404;16.942;2024-03-23T09:34:20;7.77;;;2.87;;
55815;SDS011;41744;52.404;16.942;2024-03-23T09:36:47;10.97;;;2.97;;
55815;SDS011;41744;52.404;16.942;2024-03-23T09:39:13;13.40;;;3.30;;
55815;SDS011;41744;52.404;16.942;2024-03-23T09:41:39;14.40;;;3.50;;
55815;SDS011;41744;52.404;16.942;2024-03-23T09:44:06;10.60;;;2.97;;
55815;SDS011;41744;52.404;16.942;2024-03-23T09:46:32;14.40;;;3.30;;
55815;SDS011;41744;52.404;16.942;2024-03-23T09:49:01;10.50;;;3.10;;
55815;SDS011;41744;52.404;16.942;2024-03-23T09:51:29;13.70;;;2.97;;
55815;SDS011;41744;52.404;16.942;2024-03-23T09:53:55;11.23;;;3.33;;
55815;SDS011;41744;52.404;16.942;2024-03-23T09:56:21;14.57;;;3.10;;
55815;SDS011;41744;52.404;16.942;2024-03-23T09:58:48;14.33;;;3.53;;
55815;SDS011;41744;52.404;16.942;2024-03-23T10:01:14;15.17;;;3.70;;
55815;SDS011;41744;52.404;16.942;2024-03-23T10:03:43;13.40;;;3.60;;
55815;SDS011;41744;52.404;16.942;2024-03-23T10:06:10;13.87;;;3.30;;
55815;SDS011;41744;52.404;16.942;2024-03-23T10:08:36;12.83;;;3.23;;
55815;SDS011;41744;52.404;16.942;2024-03-23T10:11:15;9.23;;;2.83;;
55815;SDS011;41744;52.404;16.942;2024-03-23T10:13:42;13.27;;;2.90;;
55815;SDS011;41744;52.404;16.942;2024-03-23T10:16:10;14.23;;;3.07;;
55815;SDS011;41744;52.404;16.942;2024-03-23T10:18:39;14.53;;;3.50;;
55815;SDS011;41744;52.404;16.942;2024-03-23T10:23:32;10.00;;;3.20;;
55815;SDS011;41744;52.404;16.942;2024-03-23T10:26:19;12.03;;;3.57;;
55815;SDS011;41744;52.404;16.942;2024-03-23T10:28:56;12.30;;;3.00;;
55815;SDS011;41744;52.404;16.942;2024-03-23T10:31:24;16.87;;;3.07;;
55815;SDS011;41744;52.404;16.942;2024-03-23T10:33:50;7.50;;;2.93;;
55815;SDS011;41744;52.404;16.942;2024-03-23T10:36:19;10.67;;;3.50;;
55815;SDS011;41744;52.404;16.942;2024-03-23T10:38:45;12.33;;;3.27;;
55815;SDS011;41744;52.404;16.942;2024-03-23T10:41:12;14.63;;;3.30;;
55815;SDS011;41744;52.404;16.942;2024-03-23T10:43:38;9.43;;;3.30;;
55815;SDS011;41744;52.404;16.942;2024-03-23T10:46:04;14.27;;;3.03;;
55815;SDS011;41744;52.404;16.942;2024-03-23T10:48:31;14.77;;;3.57;;
55815;SDS011;41744;52.404;16.942;2024-03-23T10:50:57;11.43;;;3.30;;
55815;SDS011;41744;52.404;16.942;2024-03-23T10:53:25;9.43;;;3.07;;
55815;SDS011;41744;52.404;16.942;2024-03-23T10:55:51;11.00;;;3.10;;
55815;SDS011;41744;52.404;16.942;2024-03-23T10:58:24;9.90;;;2.80;;
55815;SDS011;41744;52.404;16.942;2024-03-23T11:00:52;10.80;;;2.67;;
55815;SDS011;41744;52.404;16.942;2024-03-23T11:03:35;10.07;;;2.57;;
55815;SDS011;41744;52.404;16.942;2024-03-23T11:06:02;9.77;;;2.53;;
55815;SDS011;41744;52.404;16.942;2024-03-23T11:08:46;16.17;;;3.00;;
55815;SDS011;41744;52.404;16.942;2024-03-23T11:11:21;11.27;;;2.80;;
55815;SDS011;41744;52.404;16.942;2024-03-23T11:13:51;7.13;;;2.70;;
55815;SDS011;41744;52.404;16.942;2024-03-23T11:16:27;11.27;;;3.00;;
55815;SDS011;41744;52.404;16.942;2024-03-23T11:21:52;11.33;;;2.87;;
55815;SDS011;41744;52.404;16.942;2024-03-23T11:24:19;10.10;;;3.43;;
55815;SDS011;41744;52.404;16.942;2024-03-23T11:26:46;9.43;;;3.30;;
55815;SDS011;41744;52.404;16.942;2024-03-23T11:29:12;9.13;;;3.07;;
55815;SDS011;41744;52.404;16.942;2024-03-23T11:31:38;14.07;;;3.40;;
55815;SDS011;41744;52.404;16.942;2024-03-23T11:34:05;9.57;;;3.17;;
55815;SDS011;41744;52.404;16.942;2024-03-23T11:36:32;8.90;;;3.33;;
55815;SDS011;41744;52.404;16.942;2024-03-23T11:38:58;6.33;;;2.67;;
55815;SDS011;41744;52.404;16.942;2024-03-23T11:41:24;10.80;;;3.00;;
55815;SDS011;41744;52.404;16.942;2024-03-23T11:43:51;8.10;;;2.90;;
55815;SDS011;41744;52.404;16.942;2024-03-23T11:46:23;9.73;;;3.57;;
55815;SDS011;41744;52.404;16.942;2024-03-23T11:48:49;9.57;;;3.30;;
55815;SDS011;41744;52.404;16.942;2024-03-23T11:51:18;11.63;;;3.60;;
55815;SDS011;41744;52.404;16.942;2024-03-23T11:53:45;9.70;;;3.53;;
55815;SDS011;41744;52.404;16.942;2024-03-23T11:56:11;10.27;;;3.83;;
55815;SDS011;41744;52.404;16.942;2024-03-23T11:58:37;14.80;;;4.23;;
55815;SDS011;41744;52.404;16.942;2024-03-23T12:01:03;9.60;;;3.37;;
55815;SDS011;41744;52.404;16.942;2024-03-23T12:03:30;7.83;;;3.67;;
55815;SDS011;41744;52.404;16.942;2024-03-23T12:06:00;9.57;;;3.37;;
55815;SDS011;41744;52.404;16.942;2024-03-23T12:08:30;11.07;;;3.43;;
55815;SDS011;41744;52.404;16.942;2024-03-23T12:11:09;9.23;;;3.53;;
55815;SDS011;41744;52.404;16.942;2024-03-23T12:13:36;8.20;;;3.13;;
55815;SDS011;41744;52.404;16.942;2024-03-23T12:16:12;15.30;;;4.13;;
55815;SDS011;41744;52.404;16.942;2024-03-23T12:18:39;8.00;;;3.67;;
55815;SDS011;41744;52.404;16.942;2024-03-23T12:21:05;10.90;;;3.77;;
55815;SDS011;41744;52.404;16.942;2024-03-23T12:23:34;12.10;;;3.83;;
55815;SDS011;41744;52.404;16.942;2024-03-23T12:26:00;9.40;;;3.73;;
55815;SDS011;41744;52.404;16.942;2024-03-23T12:28:26;10.00;;;4.10;;
55815;SDS011;41744;52.404;16.942;2024-03-23T12:30:53;13.87;;;4.00;;
55815;SDS011;41744;52.404;16.942;2024-03-23T12:33:21;10.10;;;3.53;;
55815;SDS011;41744;52.404;16.942;2024-03-23T12:35:47;10.37;;;3.73;;
55815;SDS011;41744;52.404;16.942;2024-03-23T12:38:16;9.43;;;3.73;;
55815;SDS011;41744;52.404;16.942;2024-03-23T12:40:48;8.33;;;3.60;;
55815;SDS011;41744;52.404;16.942;2024-03-23T12:43:14;10.37;;;4.03;;
55815;SDS011;41744;52.404;16.942;2024-03-23T12:45:40;8.17;;;3.00;;
55815;SDS011;41744;52.404;16.942;2024-03-23T12:48:06;6.77;;;3.10;;
55815;SDS011;41744;52.404;16.942;2024-03-23T12:50:32;10.37;;;2.90;;
55815;SDS011;41744;52.404;16.942;2024-03-23T12:52:58;7.93;;;2.70;;
55815;SDS011;41744;52.404;16.942;2024-03-23T12:55:24;4.57;;;2.40;;
55815;SDS011;41744;52.404;16.942;2024-03-23T12:57:50;2.67;;;1.80;;
55815;SDS011;41744;52.404;16.942;2024-03-23T13:00:16;5.50;;;1.83;;
55815;SDS011;41744;52.404;16.942;2024-03-23T13:02:42;5.47;;;1.90;;
55815;SDS011;41744;52.404;16.942;2024-03-23T13:05:08;6.97;;;2.20;;
55815;SDS011;41744;52.404;16.942;2024-03-23T13:07:35;6.47;;;2.13;;
55815;SDS011;41744;52.404;16.942;2024-03-23T13:10:04;3.80;;;1.80;;
55815;SDS011;41744;52.404;16.942;2024-03-23T13:12:33;6.30;;;1.87;;
55815;SDS011;41744;52.404;16.942;2024-03-23T13:14:59;3.63;;;2.17;;
55815;SDS011;41744;52.404;16.942;2024-03-23T13:17:26;6.57;;;2.77;;
55815;SDS011;41744;52.404;16.942;2024-03-23T13:19:52;6.77;;;2.43;;
55815;SDS011;41744;52.404;16.942;2024-03-23T13:22:18;5.67;;;2.17;;
55815;SDS011;41744;52.404;16.942;2024-03-23T13:24:44;4.83;;;2.10;;
55815;SDS011;41744;52.404;16.942;2024-03-23T13:27:10;3.80;;;2.00;;
55815;SDS011;41744;52.404;16.942;2024-03-23T13:29:36;2.90;;;1.80;;
55815;SDS011;41744;52.404;16.942;2024-03-23T13:32:03;4.57;;;1.70;;
55815;SDS011;41744;52.404;16.942;2024-03-23T13:34:29;2.83;;;1.50;;
55815;SDS011;41744;52.404;16.942;2024-03-23T13:36:55;5.63;;;1.80;;
55815;SDS011;41744;52.404;16.942;2024-03-23T13:39:23;3.83;;;1.70;;
55815;SDS011;41744;52.404;16.942;2024-03-23T13:41:50;4.50;;;1.80;;
55815;SDS011;41744;52.404;16.942;2024-03-23T13:44:16;2.60;;;1.53;;
55815;SDS011;41744;52.404;16.942;2024-03-23T13:46:42;8.97;;;2.00;;
55815;SDS011;41744;52.404;16.942;2024-03-23T13:52:05;3.27;;;1.07;;
55815;SDS011;41744;52.404;16.942;2024-03-23T13:54:32;1.43;;;0.90;;
55815;SDS011;41744;52.404;16.942;2024-03-23T13:56:58;4.20;;;1.13;;
55815;SDS011;41744;52.404;16.942;2024-03-23T13:59:24;5.70;;;2.30;;
55815;SDS011;41744;52.404;16.942;2024-03-23T14:01:50;5.10;;;1.90;;
55815;SDS011;41744;52.404;16.942;2024-03-23T14:04:16;3.97;;;1.70;;
55815;SDS011;41744;52.404;16.942;2024-03-23T14:06:44;1.93;;;1.10;;
55815;SDS011;41744;52.404;16.942;2024-03-23T14:09:11;2.97;;;1.00;;
55815;SDS011;41744;52.404;16.942;2024-03-23T14:11:37;3.67;;;0.97;;
55815;SDS011;41744;52.404;16.942;2024-03-23T14:14:03;1.83;;;1.10;;
55815;SDS011;41744;52.404;16.942;2024-03-23T14:16:30;4.13;;;1.00;;
55815;SDS011;41744;52.404;16.942;2024-03-23T14:18:56;3.03;;;1.40;;
55815;SDS011;41744;52.404;16.942;2024-03-23T14:21:22;3.87;;;1.50;;
55815;SDS011;41744;52.404;16.942;2024-03-23T14:23:48;3.67;;;1.73;;
55815;SDS011;41744;52.404;16.942;2024-03-23T14:26:13;3.60;;;1.90;;
55815;SDS011;41744;52.404;16.942;2024-03-23T14:28:39;3.60;;;1.43;;
55815;SDS011;41744;52.404;16.942;2024-03-23T14:31:06;3.83;;;1.40;;
55815;SDS011;41744;52.404;16.942;2024-03-23T14:33:38;4.40;;;1.30;;
55815;SDS011;41744;52.404;16.942;2024-03-23T14:36:06;3.77;;;1.13;;
55815;SDS011;41744;52.404;16.942;2024-03-23T14:38:33;3.40;;;1.20;;
55815;SDS011;41744;52.404;16.942;2024-03-23T14:40:59;2.87;;;1.20;;
55815;SDS011;41744;52.404;16.942;2024-03-23T14:43:27;2.67;;;1.30;;
55815;SDS011;41744;52.404;16.942;2024-03-23T14:46:12;3.70;;;1.40;;
55815;SDS011;41744;52.404;16.942;2024-03-23T14:48:38;3.53;;;1.17;;
55815;SDS011;41744;52.404;16.942;2024-03-23T14:51:05;3.43;;;1.40;;
55815;SDS011;41744;52.404;16.942;2024-03-23T14:53:33;3.33;;;1.90;;
55815;SDS011;41744;52.404;16.942;2024-03-23T14:56:00;2.60;;;1.60;;
55815;SDS011;41744;52.404;16.942;2024-03-23T14:58:26;3.07;;;1.80;;
55815;SDS011;41744;52.404;16.942;2024-03-23T15:00:52;2.37;;;1.30;;
55815;SDS011;41744;52.404;16.942;2024-03-23T15:03:19;3.90;;;1.47;;
55815;SDS011;41744;52.404;16.942;2024-03-23T15:05:58;2.00;;;1.20;;
55815;SDS011;41744;52.404;16.942;2024-03-23T15:08:27;3.10;;;1.37;;
55815;SDS011;41744;52.404;16.942;2024-03-23T15:10:54;3.47;;;1.80;;
55815;SDS011;41744;52.404;16.942;2024-03-23T15:13:20;3.40;;;1.87;;
55815;SDS011;41744;52.404;16.942;2024-03-23T15:15:49;4.30;;;1.97;;
55815;SDS011;41744;52.404;16.942;2024-03-23T15:18:17;3.83;;;1.70;;
55815;SDS011;41744;52.404;16.942;2024-03-23T15:20:57;4.47;;;1.83;;
55815;SDS011;41744;52.404;16.942;2024-03-23T15:23:26;4.70;;;1.80;;